Covington, Kentucky
Current Conditions -  °F | °C
As of 12:53 PM on Thursday 23 Oct 2014 (Local Time) from KLUK Reporting Station
Clear Clear  
Wind Chill: 13°   Ceiling: Unl
Heat Index: 13°   Visibility: 10mi
Dew Point:   Wind: 5mph
Humidity: 62%   Direction: 220°SW
Pressure: 30.24"   Gusts: NA
Location:  39.08°N, 84.51°W
Report Text: KLUK 231653Z 22004KT 10SM CLR 13/06 A3024 RMK AO2 SLP241 T01280056
Loading
Personal Weather Stations






























Interactive Weather Map
Tropical Storm Tracking
New forecast layout! Learn more

10-Day Weather Forecast

Advertisements
Track Severe Weather on mobile